createdAt,value
2023-02-13T00:00:58.138Z,3.88
2023-02-13T00:03:25.128Z,3.77
2023-02-13T00:05:57.582Z,3.52
2023-02-13T00:08:24.443Z,2.46
2023-02-13T00:10:55.855Z,2.36
2023-02-13T00:13:22.946Z,3.24
2023-02-13T00:16:03.215Z,2.99
2023-02-13T00:18:33.493Z,3.20
2023-02-13T00:21:02.184Z,3.67
2023-02-13T00:23:31.597Z,2.72
2023-02-13T00:26:04.666Z,2.95
2023-02-13T00:28:33.773Z,3.37
2023-02-13T00:31:12.636Z,3.19
2023-02-13T00:33:45.186Z,2.24
2023-02-13T00:36:15.633Z,3.23
2023-02-13T00:38:46.388Z,2.78
2023-02-13T00:41:17.262Z,2.06
2023-02-13T00:43:47.698Z,3.16
2023-02-13T00:46:17.855Z,2.80
2023-02-13T00:48:47.790Z,2.57
2023-02-13T00:51:14.799Z,2.69
2023-02-13T00:53:46.063Z,2.63
2023-02-13T00:56:21.368Z,2.00
2023-02-13T00:58:53.374Z,2.40
2023-02-13T01:01:25.474Z,2.83
2023-02-13T01:04:02.161Z,2.95
2023-02-13T01:06:28.963Z,2.40
2023-02-13T01:09:02.974Z,2.16
2023-02-13T01:11:32.496Z,2.85
2023-02-13T01:14:01.418Z,3.01
2023-02-13T01:16:28.341Z,2.78
2023-02-13T01:18:55.982Z,2.86
2023-02-13T01:21:25.151Z,2.42
2023-02-13T01:23:54.247Z,2.96
2023-02-13T01:26:23.697Z,2.94
2023-02-13T01:28:55.328Z,2.38
2023-02-13T01:31:24.546Z,2.51
2023-02-13T01:33:58.247Z,2.83
2023-02-13T01:36:25.894Z,2.57
2023-02-13T01:38:56.125Z,2.43
2023-02-13T01:41:32.429Z,2.71
2023-02-13T01:44:02.413Z,1.46
2023-02-13T01:46:44.804Z,2.32
2023-02-13T01:49:18.700Z,2.03
2023-02-13T01:51:49.006Z,1.23
2023-02-13T01:54:19.532Z,2.14
2023-02-13T01:56:57.435Z,1.91
2023-02-13T01:59:33.937Z,1.45
2023-02-13T02:02:04.586Z,2.20
2023-02-13T02:04:36.479Z,2.19
2023-02-13T02:07:20.221Z,2.17
2023-02-13T02:09:49.891Z,0.57
2023-02-13T02:12:16.682Z,1.95
2023-02-13T02:14:47.693Z,1.58
2023-02-13T02:17:17.254Z,1.55
2023-02-13T02:20:04.930Z,2.03
2023-02-13T02:23:12.619Z,1.52
2023-02-13T02:25:57.115Z,1.94
2023-02-13T02:28:48.235Z,1.91
2023-02-13T02:31:36.891Z,1.99
2023-02-13T02:34:09.644Z,1.97
2023-02-13T02:37:00.577Z,1.89
2023-02-13T02:39:58.026Z,1.87
2023-02-13T02:42:36.836Z,1.95
2023-02-13T02:45:25.390Z,1.99
2023-02-13T02:48:24.407Z,1.60
2023-02-13T02:50:59.369Z,1.79
2023-02-13T02:53:42.472Z,1.44
2023-02-13T02:56:18.961Z,1.48
2023-02-13T02:59:13.668Z,-1.03
2023-02-13T03:02:01.888Z,1.26
2023-02-13T03:04:52.625Z,1.90
2023-02-13T03:07:20.516Z,1.89
2023-02-13T03:10:15.592Z,1.22
2023-02-13T03:13:07.879Z,1.08
2023-02-13T03:15:58.464Z,1.20
2023-02-13T03:18:43.729Z,0.97
2023-02-13T03:21:40.460Z,1.46
2023-02-13T03:24:11.880Z,1.38
2023-02-13T03:26:50.390Z,1.46
2023-02-13T03:30:06.690Z,1.59
2023-02-13T03:32:43.902Z,1.44
2023-02-13T03:35:53.433Z,0.46
2023-02-13T03:38:34.694Z,1.85
2023-02-13T03:41:19.033Z,1.88
2023-02-13T03:43:57.188Z,1.32
2023-02-13T03:46:27.476Z,1.55
2023-02-13T03:49:14.782Z,1.95
2023-02-13T03:51:51.820Z,1.60
2023-02-13T03:54:24.580Z,1.48
2023-02-13T03:57:10.901Z,1.57
2023-02-13T03:59:37.906Z,1.99
2023-02-13T04:02:15.277Z,1.46
2023-02-13T04:04:51.141Z,1.86
2023-02-13T04:07:33.252Z,0.59
2023-02-13T04:10:04.125Z,0.65
2023-02-13T04:12:53.991Z,1.21
2023-02-13T04:15:41.781Z,1.73
2023-02-13T04:18:21.454Z,-0.25
2023-02-13T04:20:48.466Z,1.27
2023-02-13T04:23:15.719Z,1.36
2023-02-13T04:25:50.592Z,1.74
2023-02-13T04:28:19.619Z,0.99
2023-02-13T04:30:51.737Z,0.73
2023-02-13T04:33:18.510Z,0.86
2023-02-13T04:35:45.691Z,0.81
2023-02-13T04:38:15.736Z,1.44
2023-02-13T04:40:42.605Z,0.69
2023-02-13T04:43:11.790Z,1.05
2023-02-13T04:45:41.577Z,1.21
2023-02-13T04:48:08.963Z,1.61
2023-02-13T04:50:37.940Z,1.59
2023-02-13T04:53:09.397Z,1.57
2023-02-13T04:55:41.092Z,1.40
2023-02-13T04:58:07.804Z,1.45
2023-02-13T05:00:34.640Z,1.54
2023-02-13T05:03:08.375Z,0.89
2023-02-13T05:05:36.002Z,0.75
2023-02-13T05:08:08.926Z,0.92
2023-02-13T05:10:40.599Z,1.00
2023-02-13T05:13:18.518Z,0.94
2023-02-13T05:15:47.807Z,0.93
2023-02-13T05:18:15.825Z,0.74
2023-02-13T05:20:42.765Z,0.37
2023-02-13T05:23:28.535Z,1.05
2023-02-13T05:25:55.398Z,0.33
2023-02-13T05:28:45.752Z,1.32
2023-02-13T05:31:12.865Z,1.55
2023-02-13T05:33:42.809Z,1.00
2023-02-13T05:36:12.157Z,0.85
2023-02-13T05:38:41.336Z,1.25
2023-02-13T05:41:13.563Z,1.30
2023-02-13T05:43:42.636Z,1.07
2023-02-13T05:46:13.818Z,0.77
2023-02-13T05:48:46.127Z,1.02
2023-02-13T05:51:13.300Z,0.23
2023-02-13T05:53:42.696Z,1.41
2023-02-13T05:56:09.552Z,0.62
2023-02-13T05:58:39.938Z,0.99
2023-02-13T06:01:11.943Z,1.14
2023-02-13T06:03:43.483Z,0.87
2023-02-13T06:06:20.047Z,0.57
2023-02-13T06:08:59.600Z,1.06
2023-02-13T06:11:28.980Z,1.24
2023-02-13T06:13:55.824Z,1.22
2023-02-13T06:16:27.900Z,0.52
2023-02-13T06:18:54.821Z,0.51
2023-02-13T06:21:28.913Z,0.62
2023-02-13T06:24:00.899Z,1.27
2023-02-13T06:26:41.364Z,0.43
2023-02-13T06:29:21.069Z,1.31
2023-02-13T06:31:50.260Z,0.92
2023-02-13T06:34:17.434Z,1.39
2023-02-13T06:36:48.946Z,0.09
2023-02-13T06:39:31.595Z,0.87
2023-02-13T06:42:08.917Z,0.18
2023-02-13T06:44:41.238Z,1.01
2023-02-13T06:47:12.754Z,0.67
2023-02-13T06:49:44.850Z,0.78
2023-02-13T06:52:17.122Z,1.44
2023-02-13T06:54:48.541Z,0.78
2023-02-13T06:57:25.088Z,1.10
2023-02-13T06:59:52.947Z,1.12
2023-02-13T07:02:22.683Z,1.30
2023-02-13T07:05:19.984Z,1.03
2023-02-13T07:07:54.173Z,1.04
2023-02-13T07:10:23.165Z,1.68
2023-02-13T07:13:05.000Z,1.04
2023-02-13T07:15:36.399Z,1.41
2023-02-13T07:18:04.041Z,1.82
2023-02-13T07:20:33.067Z,1.98
2023-02-13T07:23:07.991Z,1.88
2023-02-13T07:25:35.245Z,2.10
2023-02-13T07:28:12.599Z,2.49
2023-02-13T07:30:50.583Z,2.17
2023-02-13T07:33:17.649Z,1.94
2023-02-13T07:35:56.144Z,2.36
2023-02-13T07:38:32.733Z,2.81
2023-02-13T07:41:07.924Z,2.27
2023-02-13T07:43:37.739Z,2.63
2023-02-13T07:46:15.188Z,2.68
2023-02-13T07:48:54.866Z,2.76
2023-02-13T07:51:34.024Z,2.72
2023-02-13T07:54:08.120Z,2.29
2023-02-13T07:56:36.771Z,2.24
2023-02-13T07:59:13.741Z,2.85
2023-02-13T08:01:40.580Z,2.45
2023-02-13T08:04:07.492Z,2.80
2023-02-13T08:06:39.497Z,3.54
2023-02-13T08:09:25.927Z,3.03
2023-02-13T08:11:58.077Z,1.85
2023-02-13T08:14:26.573Z,3.04
2023-02-13T08:16:54.317Z,2.88
2023-02-13T08:19:25.873Z,3.76
2023-02-13T08:21:54.976Z,3.27
2023-02-13T08:24:26.541Z,3.41
2023-02-13T08:26:53.328Z,4.12
2023-02-13T08:29:22.297Z,3.44
2023-02-13T08:31:51.681Z,3.52
2023-02-13T08:34:21.337Z,3.85
2023-02-13T08:36:47.933Z,4.08
2023-02-13T08:39:14.740Z,3.85
2023-02-13T08:41:43.870Z,3.77
2023-02-13T08:44:11.355Z,3.54
2023-02-13T08:46:38.300Z,3.61
2023-02-13T08:49:07.402Z,4.49
2023-02-13T08:51:36.469Z,3.92
2023-02-13T08:54:07.899Z,3.65
2023-02-13T08:56:35.219Z,4.30
2023-02-13T08:59:01.959Z,4.06
2023-02-13T09:01:31.094Z,4.27
2023-02-13T09:03:57.887Z,4.84
2023-02-13T09:06:26.431Z,4.71
2023-02-13T09:08:55.881Z,4.34
2023-02-13T09:11:27.184Z,5.39
2023-02-13T09:13:54.184Z,3.69
2023-02-13T09:16:21.379Z,5.56
2023-02-13T09:18:52.895Z,5.70
2023-02-13T09:21:22.787Z,5.87
2023-02-13T09:23:51.039Z,5.46
2023-02-13T09:26:20.418Z,6.18
2023-02-13T09:28:49.929Z,5.72
2023-02-13T09:31:21.114Z,5.69
2023-02-13T09:33:52.765Z,5.99
2023-02-13T09:36:24.600Z,5.65
2023-02-13T09:39:00.610Z,6.71
2023-02-13T09:41:38.675Z,6.89
2023-02-13T09:44:34.050Z,6.94
2023-02-13T09:47:24.282Z,6.40
2023-02-13T09:49:56.532Z,7.25
2023-02-13T09:52:28.024Z,7.50
2023-02-13T09:54:55.462Z,7.76
2023-02-13T09:57:34.961Z,7.85
2023-02-13T10:00:45.172Z,7.81
2023-02-13T10:03:24.783Z,7.31
2023-02-13T10:06:15.100Z,8.12
2023-02-13T10:08:54.172Z,7.85
2023-02-13T10:11:47.119Z,7.46
2023-02-13T10:14:33.834Z,8.08
2023-02-13T10:17:24.568Z,8.68
2023-02-13T10:19:55.858Z,9.43
2023-02-13T10:22:33.005Z,8.64
2023-02-13T10:25:22.401Z,9.83
2023-02-13T10:28:06.028Z,9.91
2023-02-13T10:30:37.416Z,9.50
2023-02-13T10:33:19.334Z,9.82
2023-02-13T10:35:53.137Z,9.36
2023-02-13T10:38:23.995Z,9.12
2023-02-13T10:41:31.358Z,9.65
2023-02-13T10:44:31.810Z,9.45
2023-02-13T10:47:17.762Z,9.63
2023-02-13T10:50:04.397Z,9.87
2023-02-13T10:52:36.909Z,10.31
2023-02-13T10:55:25.443Z,10.64
2023-02-13T10:58:13.347Z,10.28
2023-02-13T11:00:49.957Z,11.17
2023-02-13T11:03:25.293Z,11.13
2023-02-13T11:05:55.676Z,11.39
2023-02-13T11:08:39.613Z,11.49
2023-02-13T11:11:30.734Z,11.64
2023-02-13T11:14:24.381Z,11.71
2023-02-13T11:17:06.346Z,11.98
2023-02-13T11:19:47.146Z,12.52
2023-02-13T11:22:29.529Z,12.35
2023-02-13T11:25:17.614Z,13.27
2023-02-13T11:27:48.657Z,13.07
2023-02-13T11:30:31.038Z,13.55
2023-02-13T11:33:03.315Z,12.63
2023-02-13T11:35:38.354Z,12.39
2023-02-13T11:38:10.233Z,12.87
2023-02-13T11:40:37.825Z,12.59
2023-02-13T11:43:07.258Z,12.34
2023-02-13T11:45:36.701Z,11.56
2023-02-13T11:48:05.816Z,13.86
2023-02-13T11:50:38.157Z,12.86
2023-02-13T11:53:23.229Z,13.81
2023-02-13T11:56:02.291Z,14.24
2023-02-13T11:58:32.022Z,14.12
2023-02-13T12:01:21.067Z,14.40
2023-02-13T12:04:16.399Z,14.80
2023-02-13T12:07:02.590Z,13.88
2023-02-13T12:09:30.868Z,14.48
2023-02-13T12:12:02.930Z,14.46
2023-02-13T12:14:39.229Z,13.97
2023-02-13T12:17:31.657Z,14.99
2023-02-13T12:20:02.517Z,14.81
2023-02-13T12:22:33.948Z,15.39
2023-02-13T12:25:28.623Z,16.11
2023-02-13T12:28:29.891Z,16.32
2023-02-13T12:31:05.842Z,17.77
2023-02-13T12:34:05.086Z,17.51
2023-02-13T12:36:34.751Z,17.44
2023-02-13T12:39:37.804Z,18.09
2023-02-13T12:42:19.635Z,17.64
2023-02-13T12:45:05.013Z,17.06
2023-02-13T12:47:39.116Z,17.07
2023-02-13T12:50:08.947Z,17.43
2023-02-13T12:52:55.460Z,16.81
2023-02-13T12:55:41.172Z,17.64
2023-02-13T12:58:45.903Z,17.86
2023-02-13T13:01:48.737Z,17.16
2023-02-13T13:04:48.580Z,17.21
2023-02-13T13:07:38.683Z,14.85
2023-02-13T13:10:30.274Z,15.05
2023-02-13T13:13:20.486Z,16.08
2023-02-13T13:15:59.491Z,16.27
2023-02-13T13:18:47.453Z,15.45
2023-02-13T13:21:18.959Z,14.78
2023-02-13T13:24:00.151Z,14.83
2023-02-13T13:26:41.652Z,15.75
2023-02-13T13:29:17.870Z,16.54
2023-02-13T13:32:06.595Z,15.47
2023-02-13T13:34:34.794Z,16.12
2023-02-13T13:37:34.099Z,16.39
2023-02-13T13:40:38.165Z,17.23
2023-02-13T13:43:07.026Z,17.47
2023-02-13T13:45:36.080Z,16.79
2023-02-13T13:48:40.805Z,16.66
2023-02-13T13:51:10.734Z,16.42
2023-02-13T13:54:03.364Z,16.67
2023-02-13T13:57:02.345Z,16.44
2023-02-13T13:59:40.889Z,15.70
2023-02-13T14:02:19.976Z,16.05
2023-02-13T14:05:04.064Z,16.17
2023-02-13T14:07:36.672Z,16.20
2023-02-13T14:10:04.438Z,17.05
2023-02-13T14:12:33.563Z,17.24
2023-02-13T14:15:03.775Z,17.05
2023-02-13T14:17:45.174Z,17.73
2023-02-13T14:20:40.191Z,18.49
2023-02-13T14:23:29.381Z,19.24
2023-02-13T14:26:14.974Z,18.54
2023-02-13T14:28:48.585Z,18.76
2023-02-13T14:31:39.397Z,18.26
2023-02-13T14:34:19.527Z,17.10
2023-02-13T14:36:58.591Z,16.41
2023-02-13T14:39:29.423Z,16.88
2023-02-13T14:42:00.764Z,16.50
2023-02-13T14:44:49.115Z,16.57
2023-02-13T14:47:42.821Z,16.91
2023-02-13T14:50:24.966Z,15.60
2023-02-13T14:52:56.097Z,15.24
2023-02-13T14:55:35.828Z,14.94
2023-02-13T14:58:28.994Z,14.19
2023-02-13T15:01:01.205Z,13.54
2023-02-13T15:04:00.423Z,12.56
2023-02-13T15:06:33.208Z,11.65
2023-02-13T15:09:06.421Z,11.92
2023-02-13T15:11:35.904Z,11.69
2023-02-13T15:14:23.478Z,11.41
2023-02-13T15:16:55.138Z,11.80
2023-02-13T15:19:23.039Z,11.72
2023-02-13T15:21:53.324Z,11.46
2023-02-13T15:24:22.942Z,10.69
2023-02-13T15:26:55.445Z,10.48
2023-02-13T15:29:29.333Z,10.14
2023-02-13T15:32:18.152Z,10.69
2023-02-13T15:34:52.033Z,9.84
2023-02-13T15:37:26.089Z,10.12
2023-02-13T15:39:52.886Z,9.89
2023-02-13T15:42:19.867Z,9.52
2023-02-13T15:44:56.958Z,9.98
2023-02-13T15:47:30.119Z,9.95
2023-02-13T15:49:57.553Z,9.56
2023-02-13T15:52:34.097Z,9.60
2023-02-13T15:55:01.070Z,9.95
2023-02-13T15:57:31.181Z,10.04
2023-02-13T15:59:59.513Z,9.23
2023-02-13T16:02:34.504Z,8.94
2023-02-13T16:05:01.982Z,8.47
2023-02-13T16:07:50.450Z,9.73
2023-02-13T16:10:37.699Z,9.19
2023-02-13T16:13:16.314Z,8.88
2023-02-13T16:15:45.708Z,8.39
2023-02-13T16:18:19.321Z,8.56
2023-02-13T16:20:56.478Z,8.24
2023-02-13T16:23:26.228Z,8.80
2023-02-13T16:26:01.648Z,8.59
2023-02-13T16:28:31.786Z,8.13
2023-02-13T16:31:05.587Z,8.20
2023-02-13T16:33:34.037Z,8.27
2023-02-13T16:36:19.968Z,8.44
2023-02-13T16:38:47.966Z,8.41
2023-02-13T16:41:20.001Z,8.35
2023-02-13T16:43:53.785Z,7.89
2023-02-13T16:46:40.816Z,7.98
2023-02-13T16:49:10.562Z,8.18
2023-02-13T16:51:38.906Z,7.96
2023-02-13T16:54:13.096Z,7.65
2023-02-13T16:56:44.967Z,8.36
2023-02-13T16:59:17.824Z,8.43
2023-02-13T17:01:46.919Z,7.85
2023-02-13T17:04:23.357Z,8.53
2023-02-13T17:07:01.980Z,7.98
2023-02-13T17:09:28.984Z,8.05
2023-02-13T17:11:57.756Z,8.75
2023-02-13T17:14:25.216Z,8.65
2023-02-13T17:16:54.335Z,8.41
2023-02-13T17:19:21.086Z,8.74
2023-02-13T17:21:54.734Z,8.18
2023-02-13T17:24:24.488Z,8.80
2023-02-13T17:26:51.409Z,8.29
2023-02-13T17:29:18.148Z,8.29
2023-02-13T17:31:45.064Z,8.42
2023-02-13T17:34:12.472Z,8.42
2023-02-13T17:36:41.522Z,8.25
2023-02-13T17:39:08.407Z,7.70
2023-02-13T17:41:45.249Z,7.94
2023-02-13T17:44:15.207Z,8.06
2023-02-13T17:46:44.825Z,7.09
2023-02-13T17:49:15.202Z,7.75
2023-02-13T17:51:46.028Z,8.12
2023-02-13T17:54:15.244Z,7.63
2023-02-13T17:56:44.111Z,7.76
2023-02-13T17:59:10.941Z,7.75
2023-02-13T18:01:40.113Z,7.95
2023-02-13T18:04:11.776Z,7.97
2023-02-13T18:06:41.148Z,7.94
2023-02-13T18:09:10.185Z,7.54
2023-02-13T18:11:39.400Z,7.70
2023-02-13T18:14:06.284Z,7.57
2023-02-13T18:16:38.597Z,7.58
2023-02-13T18:19:08.307Z,7.05
2023-02-13T18:21:37.920Z,7.48
2023-02-13T18:24:05.036Z,6.98
2023-02-13T18:26:35.140Z,7.99
2023-02-13T18:29:02.004Z,7.33
2023-02-13T18:31:33.204Z,7.66
2023-02-13T18:34:05.460Z,7.56
2023-02-13T18:36:37.563Z,6.65
2023-02-13T18:39:04.936Z,5.28
2023-02-13T18:41:31.680Z,7.32
2023-02-13T18:43:58.559Z,6.96
2023-02-13T18:46:27.616Z,7.29
2023-02-13T18:48:54.547Z,6.80
2023-02-13T18:51:26.036Z,7.50
2023-02-13T18:53:55.190Z,7.46
2023-02-13T18:56:25.046Z,7.40
2023-02-13T18:58:54.736Z,6.92
2023-02-13T19:01:22.544Z,7.35
2023-02-13T19:03:54.851Z,6.83
2023-02-13T19:06:24.367Z,7.18
2023-02-13T19:08:51.079Z,7.37
2023-02-13T19:11:23.338Z,6.52
2023-02-13T19:14:02.995Z,7.27
2023-02-13T19:16:33.515Z,6.25
2023-02-13T19:19:02.480Z,6.54
2023-02-13T19:21:33.969Z,6.74
2023-02-13T19:24:03.215Z,6.53
2023-02-13T19:26:32.687Z,6.28
2023-02-13T19:29:01.769Z,6.98
2023-02-13T19:31:30.817Z,6.65
2023-02-13T19:34:00.919Z,6.61
2023-02-13T19:36:31.527Z,6.59
2023-02-13T19:39:07.095Z,6.73
2023-02-13T19:41:36.038Z,6.27
2023-02-13T19:44:08.751Z,6.12
2023-02-13T19:46:37.143Z,5.46
2023-02-13T19:49:07.550Z,5.81
2023-02-13T19:51:37.019Z,5.59
2023-02-13T19:54:05.097Z,6.28
2023-02-13T19:56:36.290Z,6.31
2023-02-13T19:59:12.390Z,5.68
2023-02-13T20:01:42.880Z,5.46
2023-02-13T20:04:10.684Z,5.65
2023-02-13T20:06:58.587Z,5.61
2023-02-13T20:09:26.194Z,5.85
2023-02-13T20:11:53.554Z,3.16
2023-02-13T20:14:24.036Z,1.81
2023-02-13T20:16:54.201Z,4.16
2023-02-13T20:19:26.686Z,1.54
2023-02-13T20:21:56.073Z,1.75
2023-02-13T20:24:26.494Z,1.64
2023-02-13T20:26:56.656Z,2.25
2023-02-13T20:29:29.667Z,6.40
2023-02-13T20:32:00.804Z,6.41
2023-02-13T20:34:44.286Z,4.41
2023-02-13T20:37:24.402Z,6.10
2023-02-13T20:39:53.678Z,6.44
2023-02-13T20:42:23.612Z,6.15
2023-02-13T20:44:53.971Z,4.00
2023-02-13T20:47:24.316Z,2.24
2023-02-13T20:49:54.465Z,6.08
2023-02-13T20:52:21.990Z,1.65
2023-02-13T20:54:49.229Z,6.32
2023-02-13T20:57:21.779Z,1.34
2023-02-13T20:59:49.285Z,3.18
2023-02-13T21:02:19.714Z,6.15
2023-02-13T21:04:47.911Z,4.22
2023-02-13T21:07:18.136Z,1.84
2023-02-13T21:09:46.909Z,1.77
2023-02-13T21:12:15.113Z,2.05
2023-02-13T21:14:42.541Z,2.42
2023-02-13T21:20:24.041Z,3.99
2023-02-13T21:22:54.405Z,2.64
2023-02-13T21:25:22.128Z,6.43
2023-02-13T21:27:49.742Z,3.31
2023-02-13T21:30:22.816Z,1.93
2023-02-13T21:32:59.090Z,5.32
2023-02-13T21:35:26.394Z,2.69
2023-02-13T21:37:56.758Z,5.73
2023-02-13T21:40:24.044Z,5.61
2023-02-13T21:42:54.390Z,3.41
2023-02-13T21:45:22.376Z,2.43
2023-02-13T21:47:49.833Z,1.68
2023-02-13T21:50:23.587Z,3.22
2023-02-13T21:52:53.526Z,1.94
2023-02-13T21:55:23.028Z,6.53
2023-02-13T21:57:57.193Z,4.61
2023-02-13T22:00:24.457Z,2.88
2023-02-13T22:02:51.819Z,2.91
2023-02-13T22:05:19.604Z,3.94
2023-02-13T22:08:05.551Z,3.93
2023-02-13T22:10:35.430Z,4.69
2023-02-13T22:13:11.153Z,4.42
2023-02-13T22:15:38.965Z,1.97
2023-02-13T22:18:09.386Z,2.91
2023-02-13T22:20:36.634Z,1.65
2023-02-13T22:23:03.797Z,1.58
2023-02-13T22:25:31.060Z,1.02
2023-02-13T22:27:58.462Z,2.18
2023-02-13T22:30:25.900Z,2.98
2023-02-13T22:32:53.380Z,1.51
2023-02-13T22:35:20.645Z,2.19
2023-02-13T22:37:51.427Z,2.82
2023-02-13T22:40:22.154Z,2.34
2023-02-13T22:42:51.568Z,3.73
2023-02-13T22:45:24.876Z,0.89
2023-02-13T22:47:52.390Z,2.25
2023-02-13T22:50:24.347Z,5.67
2023-02-13T22:52:51.499Z,1.05
2023-02-13T22:55:21.648Z,1.03
2023-02-13T22:57:56.956Z,5.62
2023-02-13T23:00:27.197Z,5.72
2023-02-13T23:02:56.693Z,3.93
2023-02-13T23:05:24.077Z,3.74
2023-02-13T23:07:51.459Z,3.10
2023-02-13T23:10:19.889Z,1.25
2023-02-13T23:12:47.162Z,2.00
2023-02-13T23:15:15.535Z,4.34
2023-02-13T23:18:08.679Z,3.80
2023-02-13T23:20:37.733Z,5.70
2023-02-13T23:23:07.475Z,5.41
2023-02-13T23:25:35.143Z,5.43
2023-02-13T23:28:02.256Z,5.23
2023-02-13T23:30:29.248Z,5.05
2023-02-13T23:32:57.299Z,4.75
2023-02-13T23:35:27.603Z,4.91
2023-02-13T23:37:55.298Z,5.43
2023-02-13T23:40:22.039Z,5.34
2023-02-13T23:42:49.186Z,4.58
2023-02-13T23:45:28.857Z,5.50
2023-02-13T23:47:55.788Z,5.49
2023-02-13T23:50:27.603Z,4.58
2023-02-13T23:52:57.888Z,5.10
2023-02-13T23:55:27.344Z,5.02
2023-02-13T23:57:56.407Z,5.06
